Weather Center

VHHH METAR :
VHHH 182130Z 09008KT 9999 FEW018 27/23 Q1012 NOSIG

VHHH TAF :
VHHH 181700Z 1818/1924 VRB05KT 9000 FEW025 TX33/1906Z TN27/1822Z TN26/1922Z
TEMPO 1818/1824 3500 -TSRA SHRA FEW020CB SCT030
TEMPO 1818/1904 03010KT
TEMPO 1904/1910 29010KT 4000 HZ
TEMPO 1910/1920 14010KT
TEMPO 1920/1924 34010KT

VMMC METAR :
VMMCH

VMMC TAF :
VMMC 181700Z 1818/1924 09008KT 9000 FEW015 SCT025
TEMPO 1818/1824 VRB15G25KT 2500 TSRA FEW012CB SCT020
BECMG 1900/1903 02010KT
TEMPO 1902/1908 4000 HZ

Comments are closed